createdAt,value
2022-08-19T00:01:38.259Z,18.08
2022-08-19T00:04:08.825Z,18.28
2022-08-19T00:06:37.536Z,18.13
2022-08-19T00:09:07.367Z,18.22
2022-08-19T00:11:35.563Z,18.08
2022-08-19T00:14:03.615Z,17.93
2022-08-19T00:16:30.909Z,18.27
2022-08-19T00:18:59.851Z,18.27
2022-08-19T00:21:27.961Z,18.32
2022-08-19T00:23:59.067Z,18.21
2022-08-19T00:26:27.653Z,18.06
2022-08-19T00:28:55.603Z,18.01
2022-08-19T00:31:26.522Z,18.11
2022-08-19T00:33:55.616Z,18.20
2022-08-19T00:36:25.687Z,18.23
2022-08-19T00:38:54.584Z,18.34
2022-08-19T00:41:22.756Z,18.32
2022-08-19T00:44:13.512Z,18.39
2022-08-19T00:46:42.101Z,18.26
2022-08-19T00:49:31.111Z,18.42
2022-08-19T00:52:03.081Z,18.44
2022-08-19T00:54:32.401Z,18.32
2022-08-19T00:57:00.325Z,18.46
2022-08-19T01:00:00.516Z,18.44
2022-08-19T01:02:18.339Z,18.48
2022-08-19T01:04:47.169Z,18.50
2022-08-19T01:07:15.252Z,18.41
2022-08-19T01:09:47.079Z,18.28
2022-08-19T01:12:14.151Z,18.45
2022-08-19T01:14:41.255Z,18.21
2022-08-19T01:17:11.119Z,18.33
2022-08-19T01:19:43.626Z,18.32
2022-08-19T01:22:26.459Z,18.38
2022-08-19T01:24:56.509Z,18.33
2022-08-19T01:27:23.742Z,18.35
2022-08-19T01:29:52.369Z,18.18
2022-08-19T01:32:33.866Z,18.37
2022-08-19T01:35:02.861Z,18.41
2022-08-19T01:37:31.290Z,18.43
2022-08-19T01:39:59.127Z,18.49
2022-08-19T01:42:28.151Z,18.25
2022-08-19T01:44:57.858Z,18.47
2022-08-19T01:47:25.696Z,18.61
2022-08-19T01:49:52.360Z,18.49
2022-08-19T01:52:19.151Z,18.52
2022-08-19T01:54:45.958Z,18.51
2022-08-19T01:57:13.927Z,18.49
2022-08-19T01:59:42.314Z,18.40
2022-08-19T02:02:11.388Z,18.58
2022-08-19T02:04:41.139Z,18.54
2022-08-19T02:07:11.730Z,18.57
2022-08-19T02:09:39.712Z,18.50
2022-08-19T02:12:08.803Z,18.57
2022-08-19T02:14:37.321Z,18.41
2022-08-19T02:17:04.979Z,18.63
2022-08-19T02:19:33.551Z,18.70
2022-08-19T02:22:02.229Z,18.66
2022-08-19T02:24:32.174Z,18.68
2022-08-19T02:27:00.366Z,18.58
2022-08-19T02:29:28.628Z,18.62
2022-08-19T02:31:57.898Z,18.51
2022-08-19T02:34:26.000Z,18.65
2022-08-19T02:36:53.476Z,18.48
2022-08-19T02:39:21.756Z,18.41
2022-08-19T02:41:50.420Z,18.48
2022-08-19T02:44:29.362Z,18.61
2022-08-19T02:46:58.221Z,18.55
2022-08-19T02:49:24.912Z,18.47
2022-08-19T02:51:51.916Z,18.34
2022-08-19T02:54:18.599Z,18.57
2022-08-19T02:56:46.204Z,18.54
2022-08-19T02:59:13.276Z,18.50
2022-08-19T03:01:43.334Z,18.60
2022-08-19T03:04:16.466Z,18.53
2022-08-19T03:06:45.843Z,18.57
2022-08-19T03:09:13.269Z,18.23
2022-08-19T03:11:40.172Z,18.55
2022-08-19T03:14:08.540Z,18.54
2022-08-19T03:16:42.792Z,18.40
2022-08-19T03:19:09.864Z,18.68
2022-08-19T03:21:37.499Z,18.59
2022-08-19T03:24:07.406Z,18.46
2022-08-19T03:26:35.418Z,18.53
2022-08-19T03:29:05.516Z,18.48
2022-08-19T03:31:42.147Z,18.56
2022-08-19T03:34:20.898Z,18.33
2022-08-19T03:36:48.152Z,18.42
2022-08-19T03:39:15.212Z,18.20
2022-08-19T03:41:46.286Z,18.26
2022-08-19T03:44:21.543Z,18.29
2022-08-19T03:46:58.503Z,18.38
2022-08-19T03:49:29.809Z,18.35
2022-08-19T03:51:58.284Z,18.42
2022-08-19T03:54:26.140Z,18.42
2022-08-19T03:56:55.701Z,18.32
2022-08-19T03:59:26.832Z,18.43
2022-08-19T04:01:56.306Z,18.48
2022-08-19T04:04:24.971Z,18.46
2022-08-19T04:06:58.019Z,18.33
2022-08-19T04:09:26.731Z,18.39
2022-08-19T04:11:56.677Z,18.33
2022-08-19T04:14:26.189Z,18.40
2022-08-19T04:16:55.131Z,18.27
2022-08-19T04:19:23.907Z,18.44
2022-08-19T04:21:54.296Z,18.51
2022-08-19T04:24:23.140Z,18.38
2022-08-19T04:26:51.307Z,18.37
2022-08-19T04:29:22.809Z,18.45
2022-08-19T04:31:50.388Z,18.33
2022-08-19T04:34:22.986Z,18.53
2022-08-19T04:36:53.239Z,18.58
2022-08-19T04:39:48.495Z,18.42
2022-08-19T04:42:35.475Z,18.47
2022-08-19T04:45:05.519Z,18.27
2022-08-19T04:47:47.819Z,18.27
2022-08-19T04:50:27.068Z,18.39
2022-08-19T04:52:54.320Z,18.36
2022-08-19T04:55:21.359Z,18.25
2022-08-19T04:57:49.848Z,18.28
2022-08-19T05:00:18.520Z,18.35
2022-08-19T05:02:47.086Z,18.16
2022-08-19T05:05:15.828Z,18.23
2022-08-19T05:07:43.155Z,18.09
2022-08-19T05:10:10.503Z,18.29
2022-08-19T05:12:37.981Z,18.42
2022-08-19T05:15:06.751Z,18.54
2022-08-19T05:17:38.090Z,18.37
2022-08-19T05:20:26.919Z,18.44
2022-08-19T05:22:53.922Z,18.46
2022-08-19T05:25:22.485Z,18.50
2022-08-19T05:27:50.627Z,18.65
2022-08-19T05:30:17.645Z,18.65
2022-08-19T05:32:44.307Z,18.58
2022-08-19T05:35:12.468Z,18.65
2022-08-19T05:37:41.342Z,18.57
2022-08-19T05:40:10.299Z,18.72
2022-08-19T05:42:38.511Z,18.76
2022-08-19T05:45:07.416Z,18.61
2022-08-19T05:47:36.019Z,18.57
2022-08-19T05:50:09.065Z,18.69
2022-08-19T05:52:39.056Z,18.67
2022-08-19T05:55:11.942Z,18.80
2022-08-19T05:57:39.870Z,18.71
2022-08-19T06:00:12.519Z,18.70
2022-08-19T06:02:43.356Z,18.73
2022-08-19T06:05:11.060Z,18.78
2022-08-19T06:07:40.508Z,18.79
2022-08-19T06:10:11.673Z,18.76
2022-08-19T06:12:40.057Z,18.78
2022-08-19T06:15:11.300Z,18.80
2022-08-19T06:17:40.294Z,18.67
2022-08-19T06:20:14.439Z,18.54
2022-08-19T06:22:46.433Z,18.80
2022-08-19T06:25:15.210Z,18.82
2022-08-19T06:28:14.646Z,18.71
2022-08-19T06:30:30.595Z,18.77
2022-08-19T06:32:57.727Z,18.84
2022-08-19T06:35:24.899Z,18.82
2022-08-19T06:37:53.608Z,18.80
2022-08-19T06:40:20.435Z,18.89
2022-08-19T06:42:54.089Z,18.90
2022-08-19T06:45:24.567Z,19.01
2022-08-19T06:47:55.279Z,18.85
2022-08-19T06:50:25.754Z,19.05
2022-08-19T06:52:52.538Z,18.92
2022-08-19T06:55:20.043Z,18.90
2022-08-19T06:57:49.281Z,18.79
2022-08-19T07:00:16.875Z,18.91
2022-08-19T07:02:49.820Z,18.79
2022-08-19T07:05:23.705Z,18.75
2022-08-19T07:07:51.011Z,18.90
2022-08-19T07:10:18.150Z,18.98
2022-08-19T07:12:45.533Z,18.70
2022-08-19T07:15:12.927Z,18.83
2022-08-19T07:17:41.792Z,18.90
2022-08-19T07:20:11.269Z,18.92
2022-08-19T07:22:40.224Z,18.94
2022-08-19T07:25:08.765Z,18.88
2022-08-19T07:27:36.715Z,19.02
2022-08-19T07:30:06.038Z,19.07
2022-08-19T07:32:32.759Z,19.03
2022-08-19T07:35:01.668Z,19.08
2022-08-19T07:37:33.044Z,18.88
2022-08-19T07:40:02.353Z,19.01
2022-08-19T07:42:31.795Z,18.96
2022-08-19T07:44:59.701Z,18.59
2022-08-19T07:47:49.333Z,19.04
2022-08-19T07:50:16.480Z,19.02
2022-08-19T07:52:45.365Z,19.05
2022-08-19T07:55:41.183Z,19.08
2022-08-19T07:58:06.179Z,19.24
2022-08-19T08:00:33.765Z,19.11
2022-08-19T08:03:02.073Z,19.13
2022-08-19T08:05:48.928Z,19.22
2022-08-19T08:08:44.382Z,19.14
2022-08-19T08:11:20.089Z,19.03
2022-08-19T08:14:00.561Z,19.12
2022-08-19T08:16:46.745Z,19.20
2022-08-19T08:19:25.451Z,19.23
2022-08-19T08:21:56.879Z,19.23
2022-08-19T08:24:28.695Z,19.18
2022-08-19T08:27:01.156Z,19.20
2022-08-19T08:29:35.061Z,19.21
2022-08-19T08:32:04.540Z,19.00
2022-08-19T08:34:43.747Z,19.16
2022-08-19T08:37:10.514Z,19.02
2022-08-19T08:39:37.222Z,19.01
2022-08-19T08:42:16.875Z,18.89
2022-08-19T08:47:21.663Z,19.02
2022-08-19T08:49:52.830Z,19.04
2022-08-19T08:52:31.971Z,19.24
2022-08-19T08:55:02.291Z,19.21
2022-08-19T08:57:40.863Z,19.14
2022-08-19T09:00:15.390Z,19.31
2022-08-19T09:02:50.589Z,19.39
2022-08-19T09:05:26.024Z,19.37
2022-08-19T09:08:06.294Z,19.36
2022-08-19T09:10:45.045Z,19.37
2022-08-19T09:13:57.369Z,19.48
2022-08-19T09:16:28.283Z,19.43
2022-08-19T09:19:07.049Z,19.44
2022-08-19T09:21:39.475Z,19.30
2022-08-19T09:24:07.535Z,19.24
2022-08-19T09:26:47.601Z,19.34
2022-08-19T09:29:19.547Z,19.37
2022-08-19T09:31:50.932Z,19.32
2022-08-19T09:34:22.212Z,19.20
2022-08-19T09:36:55.449Z,19.34
2022-08-19T09:39:22.821Z,19.40
2022-08-19T09:41:50.966Z,19.36
2022-08-19T09:44:19.046Z,19.41
2022-08-19T09:46:49.958Z,19.59
2022-08-19T09:49:18.594Z,19.51
2022-08-19T09:51:51.152Z,19.44
2022-08-19T09:54:23.702Z,19.16
2022-08-19T09:56:53.609Z,19.31
2022-08-19T09:59:23.798Z,19.29
2022-08-19T10:01:52.707Z,19.14
2022-08-19T10:04:25.401Z,18.73
2022-08-19T10:06:56.387Z,18.70
2022-08-19T10:09:34.295Z,18.80
2022-08-19T10:12:03.843Z,18.65
2022-08-19T10:14:33.740Z,18.49
2022-08-19T10:17:04.726Z,18.52
2022-08-19T10:19:55.682Z,18.54
2022-08-19T10:22:26.393Z,18.60
2022-08-19T10:24:55.185Z,18.55
2022-08-19T10:27:22.668Z,18.66
2022-08-19T10:29:52.823Z,18.45
2022-08-19T10:32:33.681Z,18.59
2022-08-19T10:35:08.846Z,18.38
2022-08-19T10:37:37.957Z,18.51
2022-08-19T10:40:27.154Z,18.62
2022-08-19T10:42:57.103Z,18.49
2022-08-19T10:45:26.908Z,18.47
2022-08-19T10:47:56.804Z,18.58
2022-08-19T10:50:43.236Z,18.39
2022-08-19T10:53:10.210Z,18.32
2022-08-19T10:55:57.343Z,18.77
2022-08-19T10:58:25.897Z,18.89
2022-08-19T11:00:58.181Z,19.10
2022-08-19T11:03:31.564Z,19.28
2022-08-19T11:06:06.255Z,19.42
2022-08-19T11:08:35.861Z,19.76
2022-08-19T11:11:04.697Z,19.40
2022-08-19T11:13:36.229Z,19.92
2022-08-19T11:16:09.407Z,19.84
2022-08-19T11:18:38.407Z,19.77
2022-08-19T11:21:10.430Z,19.96
2022-08-19T11:23:37.161Z,19.95
2022-08-19T11:26:05.344Z,20.09
2022-08-19T11:28:33.223Z,20.07
2022-08-19T11:30:59.941Z,20.06
2022-08-19T11:33:27.361Z,19.84
2022-08-19T11:35:55.500Z,19.85
2022-08-19T11:38:23.827Z,19.72
2022-08-19T11:41:01.317Z,19.82
2022-08-19T11:43:31.579Z,19.63
2022-08-19T11:46:07.857Z,19.77
2022-08-19T11:48:36.538Z,19.70
2022-08-19T11:51:10.354Z,19.75
2022-08-19T11:53:38.686Z,19.61
2022-08-19T11:56:06.722Z,19.45
2022-08-19T11:58:35.082Z,19.57
2022-08-19T12:01:03.626Z,19.48
2022-08-19T12:03:34.263Z,19.44
2022-08-19T12:06:06.870Z,19.38
2022-08-19T12:08:34.132Z,19.43
2022-08-19T12:11:02.359Z,19.43
2022-08-19T12:13:31.459Z,19.53
2022-08-19T12:16:01.407Z,19.46
2022-08-19T12:18:29.226Z,19.59
2022-08-19T12:20:57.607Z,19.51
2022-08-19T12:23:26.937Z,19.61
2022-08-19T12:25:55.621Z,19.71
2022-08-19T12:28:24.971Z,19.81
2022-08-19T12:30:52.403Z,19.72
2022-08-19T12:33:24.467Z,19.63
2022-08-19T12:35:53.284Z,19.71
2022-08-19T12:38:25.598Z,19.80
2022-08-19T12:40:55.150Z,19.81
2022-08-19T12:43:24.242Z,19.90
2022-08-19T12:45:51.553Z,19.89
2022-08-19T12:48:33.770Z,19.91
2022-08-19T12:51:08.227Z,19.69
2022-08-19T12:53:35.330Z,20.17
2022-08-19T12:56:07.634Z,20.09
2022-08-19T12:58:48.920Z,20.42
2022-08-19T13:01:22.926Z,20.53
2022-08-19T13:03:55.050Z,20.44
2022-08-19T13:06:22.500Z,20.25
2022-08-19T13:08:50.723Z,20.24
2022-08-19T13:11:20.418Z,20.06
2022-08-19T13:13:49.241Z,20.17
2022-08-19T13:16:16.593Z,20.24
2022-08-19T13:18:45.586Z,20.13
2022-08-19T13:21:13.985Z,20.49
2022-08-19T13:23:41.849Z,20.41
2022-08-19T13:26:09.861Z,20.13
2022-08-19T13:28:55.101Z,19.57
2022-08-19T13:31:41.167Z,19.90
2022-08-19T13:34:09.840Z,19.85
2022-08-19T13:36:37.342Z,19.76
2022-08-19T13:39:08.551Z,19.73
2022-08-19T13:41:36.130Z,19.90
2022-08-19T13:44:04.125Z,20.26
2022-08-19T13:46:31.465Z,20.41
2022-08-19T13:48:59.133Z,20.39
2022-08-19T13:51:26.339Z,20.42
2022-08-19T13:53:52.948Z,20.20
2022-08-19T13:56:26.104Z,20.32
2022-08-19T13:58:54.375Z,19.93
2022-08-19T14:01:25.508Z,20.46
2022-08-19T14:03:56.894Z,20.51
2022-08-19T14:06:24.700Z,20.60
2022-08-19T14:08:56.469Z,20.75
2022-08-19T14:11:24.112Z,20.84
2022-08-19T14:13:52.417Z,20.93
2022-08-19T14:16:19.449Z,20.97
2022-08-19T14:18:47.279Z,20.88
2022-08-19T14:21:18.420Z,20.81
2022-08-19T14:23:47.284Z,20.83
2022-08-19T14:26:17.991Z,20.70
2022-08-19T14:28:45.821Z,20.11
2022-08-19T14:31:19.273Z,19.56
2022-08-19T14:33:48.472Z,19.80
2022-08-19T14:36:16.043Z,19.78
2022-08-19T14:38:49.826Z,19.64
2022-08-19T14:41:22.498Z,19.71
2022-08-19T14:43:52.763Z,19.59
2022-08-19T14:46:24.107Z,19.48
2022-08-19T14:48:53.605Z,19.40
2022-08-19T14:51:22.161Z,19.29
2022-08-19T14:53:49.801Z,19.36
2022-08-19T14:56:22.107Z,19.26
2022-08-19T14:58:52.478Z,19.10
2022-08-19T15:01:23.895Z,18.99
2022-08-19T15:03:53.903Z,19.05
2022-08-19T15:06:22.124Z,19.00
2022-08-19T15:08:49.002Z,19.07
2022-08-19T15:11:17.457Z,19.13
2022-08-19T15:13:45.624Z,19.23
2022-08-19T15:16:18.149Z,19.08
2022-08-19T15:18:47.663Z,19.09
2022-08-19T15:21:17.467Z,19.17
2022-08-19T15:23:55.794Z,19.24
2022-08-19T15:26:22.589Z,19.24
2022-08-19T15:28:49.757Z,19.02
2022-08-19T15:31:27.964Z,19.06
2022-08-19T15:34:00.653Z,19.10
2022-08-19T15:36:28.324Z,18.91
2022-08-19T15:39:00.044Z,18.99
2022-08-19T15:41:30.484Z,18.93
2022-08-19T15:44:04.849Z,18.98
2022-08-19T15:46:33.504Z,18.80
2022-08-19T15:49:00.652Z,18.99
2022-08-19T15:51:30.718Z,19.07
2022-08-19T15:53:58.643Z,18.72
2022-08-19T15:56:27.630Z,18.56
2022-08-19T15:59:14.599Z,18.78
2022-08-19T16:02:01.548Z,18.70
2022-08-19T16:04:49.465Z,18.81
2022-08-19T16:07:22.355Z,18.70
2022-08-19T16:09:50.632Z,18.66
2022-08-19T16:12:18.987Z,18.51
2022-08-19T16:14:49.557Z,18.61
2022-08-19T16:17:17.523Z,18.61
2022-08-19T16:19:50.840Z,18.61
2022-08-19T16:22:29.926Z,18.60
2022-08-19T16:24:57.849Z,18.38
2022-08-19T16:27:25.575Z,18.44
2022-08-19T16:29:55.694Z,18.42
2022-08-19T16:32:23.727Z,18.48
2022-08-19T16:34:52.016Z,18.40
2022-08-19T16:37:21.741Z,18.25
2022-08-19T16:39:49.884Z,18.26
2022-08-19T16:42:18.868Z,18.04
2022-08-19T16:44:46.912Z,17.98
2022-08-19T16:47:16.831Z,17.96
2022-08-19T16:49:53.267Z,17.92
2022-08-19T16:52:26.224Z,18.03
2022-08-19T16:54:54.733Z,17.98
2022-08-19T16:57:23.927Z,18.01
2022-08-19T16:59:52.374Z,18.05
2022-08-19T17:02:23.339Z,18.13
2022-08-19T17:04:58.487Z,18.18
2022-08-19T17:07:27.768Z,18.18
2022-08-19T17:09:56.746Z,17.79
2022-08-19T17:12:30.579Z,18.07
2022-08-19T17:15:01.112Z,18.15
2022-08-19T17:17:29.521Z,18.23
2022-08-19T17:19:57.713Z,18.11
2022-08-19T17:22:25.922Z,18.09
2022-08-19T17:24:52.733Z,17.93
2022-08-19T17:27:23.166Z,17.96
2022-08-19T17:29:49.929Z,17.89
2022-08-19T17:32:17.008Z,17.93
2022-08-19T17:34:54.178Z,17.81
2022-08-19T17:37:21.654Z,17.96
2022-08-19T17:39:48.351Z,17.64
2022-08-19T17:42:16.273Z,17.69
2022-08-19T17:44:50.719Z,17.76
2022-08-19T17:47:19.537Z,17.85
2022-08-19T17:49:46.350Z,17.66
2022-08-19T17:52:14.134Z,17.77
2022-08-19T17:54:41.385Z,17.54
2022-08-19T17:57:09.569Z,17.61
2022-08-19T17:59:38.060Z,17.74
2022-08-19T18:02:10.136Z,17.81
2022-08-19T18:04:38.890Z,17.76
2022-08-19T18:07:09.326Z,17.66
2022-08-19T18:09:42.504Z,17.61
2022-08-19T18:12:12.402Z,17.46
2022-08-19T18:14:41.690Z,17.51
2022-08-19T18:17:13.815Z,17.52
2022-08-19T18:19:43.393Z,17.48
2022-08-19T18:22:31.237Z,17.52
2022-08-19T18:25:01.893Z,17.46
2022-08-19T18:27:33.759Z,17.32
2022-08-19T18:30:06.141Z,17.37
2022-08-19T18:32:34.258Z,17.13
2022-08-19T18:35:12.059Z,17.11
2022-08-19T18:37:43.723Z,17.10
2022-08-19T18:40:37.012Z,17.04
2022-08-19T18:43:12.391Z,17.08
2022-08-19T18:46:03.094Z,17.19
2022-08-19T18:48:49.387Z,17.04
2022-08-19T18:51:18.291Z,17.05
2022-08-19T18:53:47.345Z,17.12
2022-08-19T18:56:17.096Z,17.11
2022-08-19T18:58:44.598Z,17.08
2022-08-19T19:01:22.664Z,17.10
2022-08-19T19:03:53.868Z,16.87
2022-08-19T19:06:28.860Z,17.02
2022-08-19T19:08:57.394Z,16.81
2022-08-19T19:11:31.343Z,16.94
2022-08-19T19:13:58.253Z,16.83
2022-08-19T19:16:25.998Z,16.96
2022-08-19T19:18:53.973Z,16.93
2022-08-19T19:21:23.120Z,17.02
2022-08-19T19:23:50.367Z,17.00
2022-08-19T19:26:17.628Z,16.84
2022-08-19T19:28:47.998Z,16.97
2022-08-19T19:31:26.452Z,17.01
2022-08-19T19:33:54.423Z,16.94
2022-08-19T19:36:22.823Z,17.02
2022-08-19T19:38:50.031Z,16.82
2022-08-19T19:41:24.502Z,16.92
2022-08-19T19:44:10.002Z,16.97
2022-08-19T19:46:45.194Z,17.08
2022-08-19T19:49:12.041Z,16.94
2022-08-19T19:51:39.424Z,17.06
2022-08-19T19:54:09.082Z,17.05
2022-08-19T19:56:35.967Z,16.94
2022-08-19T19:59:04.446Z,16.95
2022-08-19T20:01:37.615Z,16.97
2022-08-19T20:04:08.006Z,16.80
2022-08-19T20:06:36.772Z,16.80
2022-08-19T20:09:10.764Z,16.84
2022-08-19T20:11:53.697Z,16.86
2022-08-19T20:14:27.690Z,16.86
2022-08-19T20:16:55.998Z,16.82
2022-08-19T20:19:28.013Z,16.78
2022-08-19T20:21:57.285Z,16.66
2022-08-19T20:24:28.553Z,16.66
2022-08-19T20:26:57.924Z,16.62
2022-08-19T20:29:38.811Z,16.79
2022-08-19T20:32:10.009Z,16.72
2022-08-19T20:34:39.840Z,16.87
2022-08-19T20:37:09.435Z,16.73
2022-08-19T20:39:38.037Z,16.78
2022-08-19T20:42:05.846Z,16.82
2022-08-19T20:44:33.586Z,16.86
2022-08-19T20:47:03.823Z,16.90
2022-08-19T20:49:32.285Z,16.37
2022-08-19T20:52:00.391Z,16.74
2022-08-19T20:54:27.600Z,16.84
2022-08-19T20:56:54.634Z,16.33
2022-08-19T20:59:22.905Z,16.67
2022-08-19T21:01:51.906Z,16.54
2022-08-19T21:04:22.377Z,16.82
2022-08-19T21:06:51.032Z,16.66
2022-08-19T21:09:18.042Z,16.73
2022-08-19T21:11:45.535Z,16.70
2022-08-19T21:14:12.854Z,16.71
2022-08-19T21:16:39.565Z,16.59
2022-08-19T21:19:06.687Z,16.77
2022-08-19T21:21:34.980Z,16.68
2022-08-19T21:24:01.780Z,16.64
2022-08-19T21:26:28.450Z,16.71
2022-08-19T21:28:56.811Z,16.65
2022-08-19T21:31:24.569Z,16.69
2022-08-19T21:33:52.317Z,16.68
2022-08-19T21:36:19.440Z,16.75
2022-08-19T21:38:46.224Z,16.76
2022-08-19T21:41:13.356Z,16.83
2022-08-19T21:43:40.910Z,16.73
2022-08-19T21:46:09.566Z,16.91
2022-08-19T21:48:38.005Z,16.88
2022-08-19T21:51:07.705Z,16.76
2022-08-19T21:53:35.789Z,16.91
2022-08-19T21:56:06.383Z,17.04
2022-08-19T21:58:36.368Z,17.07
2022-08-19T22:01:06.158Z,17.07
2022-08-19T22:03:35.624Z,17.10
2022-08-19T22:06:05.535Z,17.21
2022-08-19T22:08:33.390Z,17.14
2022-08-19T22:11:03.922Z,17.18
2022-08-19T22:13:40.142Z,17.26
2022-08-19T22:16:10.762Z,17.21
2022-08-19T22:18:39.116Z,17.26
2022-08-19T22:21:14.222Z,17.32
2022-08-19T22:23:47.028Z,17.25
2022-08-19T22:26:17.763Z,17.14
2022-08-19T22:28:46.673Z,17.01
2022-08-19T22:31:16.059Z,17.22
2022-08-19T22:33:47.783Z,17.13
2022-08-19T22:36:15.335Z,17.15
2022-08-19T22:38:43.738Z,17.26
2022-08-19T22:41:11.741Z,17.30
2022-08-19T22:43:40.875Z,17.13
2022-08-19T22:46:17.454Z,17.14
2022-08-19T22:48:47.705Z,17.30
2022-08-19T22:51:37.176Z,17.24
2022-08-19T22:54:04.760Z,17.29
2022-08-19T22:56:32.139Z,17.20
2022-08-19T22:58:58.849Z,17.11
2022-08-19T23:01:30.433Z,17.06
2022-08-19T23:04:00.225Z,17.09
2022-08-19T23:06:34.160Z,17.20
2022-08-19T23:09:07.293Z,17.13
2022-08-19T23:11:42.005Z,17.32
2022-08-19T23:14:10.340Z,17.41
2022-08-19T23:16:37.230Z,17.26
2022-08-19T23:19:04.985Z,17.39
2022-08-19T23:21:36.043Z,17.47
2022-08-19T23:24:03.065Z,17.40
2022-08-19T23:26:35.589Z,17.35
2022-08-19T23:29:23.713Z,17.36
2022-08-19T23:31:52.080Z,17.29
2022-08-19T23:34:18.822Z,17.15
2022-08-19T23:36:46.270Z,17.29
2022-08-19T23:39:13.057Z,17.26
2022-08-19T23:41:40.895Z,17.29
2022-08-19T23:44:14.408Z,17.23
2022-08-19T23:46:55.378Z,17.36
2022-08-19T23:49:23.564Z,17.39
2022-08-19T23:51:50.335Z,17.23
2022-08-19T23:54:16.948Z,17.27
2022-08-19T23:56:45.059Z,17.24
2022-08-19T23:59:12.117Z,17.25
